Time,TemperatureF,DewpointF,PressureIn,WindDirection,WindDirectionDegrees,WindSpeedMPH,WindSpeedGustMPH,Humidity,HourlyPrecipIn,Conditions,Clouds,dailyrainin,SoftwareType,DateUTC
2013-02-16 00:08:00,21.2,17.0,30.20,NW,310,0.0,1.0,84,0.00,,,0.00,weatherlink.com 1.10,2013-02-16 06:08:00,
2013-02-16 00:39:00,19.7,15.0,30.20,NW,310,0.0,0.0,83,0.00,,,0.00,weatherlink.com 1.10,2013-02-16 06:39:00,
2013-02-16 00:53:00,18.6,14.0,30.19,NW,310,0.0,0.0,83,0.00,,,0.00,weatherlink.com 1.10,2013-02-16 06:53:00,
2013-02-16 01:08:00,17.5,14.0,30.19,NW,310,0.0,0.0,84,0.00,,,0.00,weatherlink.com 1.10,2013-02-16 07:08:00,
2013-02-16 01:23:00,16.4,13.0,30.18,NW,310,0.0,0.0,85,0.00,,,0.00,weatherlink.com 1.10,2013-02-16 07:23:00,
2013-02-16 01:39:00,15.6,12.0,30.18,NW,310,0.0,0.0,86,0.00,,,0.00,weatherlink.com 1.10,2013-02-16 07:39:00,
2013-02-16 01:54:00,14.8,11.0,30.18,NW,310,0.0,0.0,86,0.00,,,0.00,weatherlink.com 1.10,2013-02-16 07:54:00,
2013-02-16 02:09:00,14.3,11.0,30.18,NW,310,0.0,0.0,87,0.00,,,0.00,weatherlink.com 1.10,2013-02-16 08:09:00,
2013-02-16 02:24:00,13.7,11.0,30.17,NW,310,0.0,0.0,88,0.00,,,0.00,weatherlink.com 1.10,2013-02-16 08:24:00,
2013-02-16 02:39:00,13.1,10.0,30.16,NW,310,0.0,0.0,87,0.00,,,0.00,weatherlink.com 1.10,2013-02-16 08:39:00,
2013-02-16 02:54:00,12.4,10.0,30.16,NW,310,0.0,0.0,88,0.00,,,0.00,weatherlink.com 1.10,2013-02-16 08:54:00,
2013-02-16 03:09:00,12.1,10.0,30.16,NW,310,0.0,0.0,89,0.00,,,0.00,weatherlink.com 1.10,2013-02-16 09:09:00,
2013-02-16 03:24:00,12.0,9.0,30.15,NW,310,0.0,0.0,89,0.00,,,0.00,weatherlink.com 1.10,2013-02-16 09:24:00,
2013-02-16 03:39:00,11.4,9.0,30.15,NW,310,0.0,0.0,89,0.00,,,0.00,weatherlink.com 1.10,2013-02-16 09:39:00,
2013-02-16 03:54:00,10.7,8.0,30.15,NW,310,0.0,0.0,89,0.00,,,0.00,weatherlink.com 1.10,2013-02-16 09:54:00,
2013-02-16 04:09:00,10.3,8.0,30.15,NW,310,0.0,0.0,89,0.00,,,0.00,weatherlink.com 1.10,2013-02-16 10:09:00,
2013-02-16 04:24:00,11.0,9.0,30.15,NW,310,0.0,0.0,91,0.00,,,0.00,weatherlink.com 1.10,2013-02-16 10:24:00,
2013-02-16 04:39:00,11.4,9.0,30.14,NW,310,0.0,0.0,91,0.00,,,0.00,weatherlink.com 1.10,2013-02-16 10:39:00,
2013-02-16 04:54:00,11.5,9.0,30.14,NW,310,0.0,0.0,91,0.00,,,0.00,weatherlink.com 1.10,2013-02-16 10:54:00,
2013-02-16 05:10:00,11.5,9.0,30.13,NW,310,0.0,0.0,91,0.00,,,0.00,weatherlink.com 1.10,2013-02-16 11:10:00,
2013-02-16 05:24:00,11.7,10.0,30.13,NW,310,0.0,0.0,91,0.00,,,0.00,weatherlink.com 1.10,2013-02-16 11:24:00,
2013-02-16 05:39:00,11.8,10.0,30.13,NW,310,0.0,0.0,90,0.00,,,0.00,weatherlink.com 1.10,2013-02-16 11:39:00,
2013-02-16 05:54:00,12.0,10.0,30.12,NW,310,0.0,0.0,91,0.00,,,0.00,weatherlink.com 1.10,2013-02-16 11:54:00,
2013-02-16 06:09:00,12.2,10.0,30.12,NW,310,0.0,0.0,91,0.00,,,0.00,weatherlink.com 1.10,2013-02-16 12:09:00,
2013-02-16 06:25:00,12.5,10.0,30.11,WNW,288,0.0,3.0,90,0.00,,,0.00,weatherlink.com 1.10,2013-02-16 12:25:00,
2013-02-16 06:40:00,12.6,10.0,30.11,WNW,288,0.0,1.0,90,0.00,,,0.00,weatherlink.com 1.10,2013-02-16 12:40:00,
2013-02-16 06:54:00,13.0,11.0,30.10,SW,234,0.0,1.0,91,0.00,,,0.00,weatherlink.com 1.10,2013-02-16 12:54:00,
2013-02-16 07:09:00,13.2,11.0,30.09,SW,234,0.0,2.0,90,0.00,,,0.00,weatherlink.com 1.10,2013-02-16 13:09:00,
2013-02-16 07:24:00,13.2,11.0,30.09,SW,234,0.0,0.0,90,0.00,,,0.00,weatherlink.com 1.10,2013-02-16 13:24:00,
2013-02-16 07:39:00,13.4,11.0,30.09,SW,234,0.0,0.0,90,0.00,,,0.00,weatherlink.com 1.10,2013-02-16 13:39:00,
2013-02-16 07:55:00,13.6,12.0,30.08,SW,234,0.0,1.0,91,0.00,,,0.00,weatherlink.com 1.10,2013-02-16 13:55:00,
2013-02-16 08:09:00,14.2,12.0,30.08,SW,234,0.0,1.0,91,0.00,,,0.00,weatherlink.com 1.10,2013-02-16 14:09:00,
2013-02-16 08:24:00,14.9,13.0,30.07,SW,221,0.0,3.0,91,0.00,,,0.00,weatherlink.com 1.10,2013-02-16 14:24:00,
2013-02-16 08:40:00,15.9,14.0,30.07,South,175,0.0,2.0,90,0.00,,,0.00,weatherlink.com 1.10,2013-02-16 14:40:00,
2013-02-16 08:55:00,17.2,15.0,30.07,SW,236,1.0,3.0,89,0.00,,,0.00,weatherlink.com 1.10,2013-02-16 14:55:00,
2013-02-16 09:10:00,18.3,15.0,30.06,SSW,196,0.0,4.0,87,0.00,,,0.00,weatherlink.com 1.10,2013-02-16 15:10:00,
2013-02-16 09:25:00,19.5,16.0,30.05,SW,215,1.0,4.0,86,0.00,,,0.00,weatherlink.com 1.10,2013-02-16 15:25:00,
2013-02-16 09:40:00,21.7,17.0,30.05,West,263,0.0,6.0,81,0.00,,,0.00,weatherlink.com 1.10,2013-02-16 15:40:00,
2013-02-16 09:55:00,22.9,17.0,30.05,SW,219,0.0,6.0,79,0.00,,,0.00,weatherlink.com 1.10,2013-02-16 15:55:00,
2013-02-16 10:10:00,23.9,17.0,30.05,SW,217,0.0,7.0,75,0.00,,,0.00,weatherlink.com 1.10,2013-02-16 16:10:00,
2013-02-16 10:25:00,24.3,17.0,30.04,SSW,199,2.0,8.0,75,0.01,,,0.01,weatherlink.com 1.10,2013-02-16 16:25:00,
2013-02-16 10:39:00,24.5,18.0,30.03,WSW,243,0.0,7.0,77,0.02,,,0.02,weatherlink.com 1.10,2013-02-16 16:39:00,
2013-02-16 10:54:00,25.7,19.0,30.03,SW,229,0.0,8.0,76,0.02,,,0.02,weatherlink.com 1.10,2013-02-16 16:54:00,
2013-02-16 11:09:00,26.5,20.0,30.02,SW,215,2.0,7.0,75,0.02,,,0.02,weatherlink.com 1.10,2013-02-16 17:09:00,
2013-02-16 11:25:00,27.3,20.0,30.02,SW,223,2.0,7.0,74,0.02,,,0.03,weatherlink.com 1.10,2013-02-16 17:25:00,
2013-02-16 11:39:00,27.4,20.0,30.01,SSW,195,12.0,12.0,74,0.01,,,0.03,weatherlink.com 1.10,2013-02-16 17:39:00,
2013-02-16 11:55:00,27.3,21.0,30.00,SSW,209,0.0,9.0,76,0.01,,,0.03,weatherlink.com 1.10,2013-02-16 17:55:00,
2013-02-16 12:10:00,27.6,21.0,29.99,SW,232,4.0,8.0,76,0.02,,,0.04,weatherlink.com 1.10,2013-02-16 18:10:00,
2013-02-16 12:25:00,28.1,22.0,29.98,South,180,0.0,6.0,77,0.01,,,0.04,weatherlink.com 1.10,2013-02-16 18:25:00,
2013-02-16 12:39:00,28.8,22.0,29.98,SW,215,3.0,6.0,77,0.01,,,0.04,weatherlink.com 1.10,2013-02-16 18:39:00,
2013-02-16 12:54:00,29.8,23.0,29.97,WSW,250,0.0,7.0,77,0.00,,,0.04,weatherlink.com 1.10,2013-02-16 18:54:00,
2013-02-16 13:10:00,30.3,24.0,29.97,West,270,4.0,6.0,76,0.00,,,0.04,weatherlink.com 1.10,2013-02-16 19:10:00,
2013-02-16 13:25:00,30.7,24.0,29.96,South,170,3.0,9.0,75,0.00,,,0.04,weatherlink.com 1.10,2013-02-16 19:25:00,
2013-02-16 13:40:00,30.8,24.0,29.96,South,180,3.0,7.0,77,0.00,,,0.04,weatherlink.com 1.10,2013-02-16 19:40:00,
2013-02-16 13:55:00,31.2,24.0,29.95,SW,223,1.0,7.0,76,0.00,,,0.04,weatherlink.com 1.10,2013-02-16 19:55:00,
2013-02-16 14:10:00,31.2,24.0,29.94,SSW,195,2.0,8.0,76,0.00,,,0.04,weatherlink.com 1.10,2013-02-16 20:10:00,
2013-02-16 14:25:00,31.6,25.0,29.94,SSW,202,0.0,4.0,76,0.00,,,0.04,weatherlink.com 1.10,2013-02-16 20:25:00,
2013-02-16 14:40:00,31.5,25.0,29.93,SW,220,0.0,5.0,76,0.00,,,0.04,weatherlink.com 1.10,2013-02-16 20:40:00,
2013-02-16 14:55:00,31.5,25.0,29.93,SW,220,4.0,6.0,77,0.00,,,0.04,weatherlink.com 1.10,2013-02-16 20:55:00,
2013-02-16 15:10:00,31.5,25.0,29.93,WSW,248,5.0,7.0,76,0.00,,,0.04,weatherlink.com 1.10,2013-02-16 21:10:00,
2013-02-16 15:25:00,31.4,25.0,29.94,SW,228,3.0,7.0,77,0.00,,,0.04,weatherlink.com 1.10,2013-02-16 21:25:00,
2013-02-16 15:40:00,31.4,25.0,29.94,SSW,212,3.0,8.0,77,0.00,,,0.04,weatherlink.com 1.10,2013-02-16 21:40:00,
2013-02-16 15:55:00,32.1,26.0,29.93,SW,234,3.0,5.0,78,0.00,,,0.04,weatherlink.com 1.10,2013-02-16 21:55:00,
2013-02-16 16:10:00,32.8,26.0,29.93,South,188,2.0,7.0,76,0.00,,,0.04,weatherlink.com 1.10,2013-02-16 22:10:00,
2013-02-16 16:25:00,33.7,26.0,29.93,SW,227,3.0,6.0,74,0.00,,,0.04,weatherlink.com 1.10,2013-02-16 22:25:00,
2013-02-16 16:41:00,33.7,25.0,29.93,SW,232,3.0,8.0,71,0.00,,,0.04,weatherlink.com 1.10,2013-02-16 22:41:00,
2013-02-16 16:56:00,33.0,25.0,29.92,South,178,1.0,8.0,73,0.00,,,0.04,weatherlink.com 1.10,2013-02-16 22:56:00,
2013-02-16 17:10:00,32.0,25.0,29.92,SE,125,0.0,7.0,75,0.00,,,0.04,weatherlink.com 1.10,2013-02-16 23:10:00,
2013-02-16 17:25:00,31.4,25.0,29.92,South,169,3.0,8.0,76,0.00,,,0.04,weatherlink.com 1.10,2013-02-16 23:25:00,
2013-02-16 17:41:00,31.1,25.0,29.92,SW,236,0.0,8.0,77,0.00,,,0.04,weatherlink.com 1.10,2013-02-16 23:41:00,
2013-02-16 17:56:00,30.7,25.0,29.92,SSW,203,1.0,9.0,78,0.00,,,0.04,weatherlink.com 1.10,2013-02-16 23:56:00,
2013-02-16 18:10:00,30.4,25.0,29.92,SSE,150,2.0,5.0,79,0.00,,,0.04,weatherlink.com 1.10,2013-02-17 00:10:00,
2013-02-16 18:25:00,30.3,25.0,29.92,South,182,0.0,6.0,79,0.00,,,0.04,weatherlink.com 1.10,2013-02-17 00:25:00,
2013-02-16 18:40:00,30.2,24.0,29.92,SE,124,1.0,5.0,79,0.00,,,0.04,weatherlink.com 1.10,2013-02-17 00:40:00,
2013-02-16 18:55:00,30.1,24.0,29.91,SSE,153,0.0,5.0,79,0.00,,,0.04,weatherlink.com 1.10,2013-02-17 00:55:00,
2013-02-16 19:10:00,30.0,24.0,29.91,SW,214,1.0,5.0,78,0.00,,,0.04,weatherlink.com 1.10,2013-02-17 01:10:00,
2013-02-16 19:26:00,29.9,24.0,29.91,SE,139,3.0,7.0,79,0.00,,,0.04,weatherlink.com 1.10,2013-02-17 01:26:00,
2013-02-16 19:41:00,29.8,24.0,29.91,SSE,156,2.0,5.0,79,0.00,,,0.04,weatherlink.com 1.10,2013-02-17 01:41:00,
2013-02-16 19:56:00,29.7,24.0,29.91,SSE,159,0.0,7.0,80,0.00,,,0.04,weatherlink.com 1.10,2013-02-17 01:56:00,
2013-02-16 20:10:00,29.7,24.0,29.90,South,184,2.0,9.0,80,0.00,,,0.04,weatherlink.com 1.10,2013-02-17 02:10:00,
2013-02-16 20:26:00,29.7,24.0,29.90,SSW,210,0.0,7.0,80,0.00,,,0.04,weatherlink.com 1.10,2013-02-17 02:26:00,
2013-02-16 20:40:00,29.6,24.0,29.90,South,175,2.0,7.0,80,0.00,,,0.04,weatherlink.com 1.10,2013-02-17 02:40:00,
2013-02-16 20:56:00,29.6,24.0,29.90,SSE,153,0.0,4.0,80,0.00,,,0.04,weatherlink.com 1.10,2013-02-17 02:56:00,
2013-02-16 21:10:00,29.6,24.0,29.90,SSE,155,2.0,6.0,80,0.00,,,0.04,weatherlink.com 1.10,2013-02-17 03:10:00,
2013-02-16 21:25:00,29.5,24.0,29.90,SSE,165,1.0,7.0,80,0.00,,,0.04,weatherlink.com 1.10,2013-02-17 03:25:00,
2013-02-16 21:41:00,29.4,24.0,29.90,SSE,155,0.0,6.0,80,0.00,,,0.04,weatherlink.com 1.10,2013-02-17 03:41:00,
2013-02-16 21:56:00,29.2,24.0,29.90,SE,144,0.0,6.0,80,0.00,,,0.04,weatherlink.com 1.10,2013-02-17 03:56:00,
2013-02-16 22:11:00,29.1,24.0,29.89,SSE,153,4.0,8.0,81,0.00,,,0.04,weatherlink.com 1.10,2013-02-17 04:11:00,
2013-02-16 22:26:00,28.8,24.0,29.89,SSE,165,1.0,4.0,81,0.00,,,0.04,weatherlink.com 1.10,2013-02-17 04:26:00,
2013-02-16 22:41:00,28.5,23.0,29.89,South,184,0.0,7.0,81,0.00,,,0.04,weatherlink.com 1.10,2013-02-17 04:41:00,
2013-02-16 22:55:00,28.2,23.0,29.89,South,184,2.0,4.0,82,0.00,,,0.04,weatherlink.com 1.10,2013-02-17 04:55:00,
2013-02-16 23:11:00,27.9,23.0,29.88,SSE,160,0.0,5.0,82,0.00,,,0.04,weatherlink.com 1.10,2013-02-17 05:11:00,
2013-02-16 23:25:00,27.7,23.0,29.88,SSE,155,3.0,3.0,83,0.00,,,0.04,weatherlink.com 1.10,2013-02-17 05:25:00,
2013-02-16 23:41:00,27.5,23.0,29.87,SE,144,1.0,3.0,83,0.00,,,0.04,weatherlink.com 1.10,2013-02-17 05:41:00,
2013-02-16 23:55:00,27.3,23.0,29.87,SSE,161,0.0,3.0,83,0.00,,,0.04,weatherlink.com 1.10,2013-02-17 05:55:00,